Greenbush, Virginia
Current Conditions -  °F | °C
As of 1:15 PM on Thursday 18 Dec 2014 (Local Time) from KMFV Reporting Station
Clear Clear  
Wind Chill: 33°   Ceiling: Unl
Heat Index: 41°   Visibility: 10mi
Dew Point: 25°   Wind: 15mph
Humidity: 53%   Direction: 310°NW
Pressure: 30.09"   Gusts: 21mph
Location:  37.74°N, 75.68°W
Report Text: KMFV 181815Z AUTO 31013G18KT 10SM CLR 05/M04 A3009 RMK AO2
Loading
Personal Weather Stations






























Interactive Weather Map New forecast layout! Learn more

10-Day Weather Forecast

Advertisements
Track Severe Weather on mobile